Time;durP1;ratioP1;P1;durP2;ratioP2;P2;SDS_P1;SDS_P2;PMS_P1;PMS_P2;Temp;Humidity;BMP_temperature;BMP_pressure;BME280_temperature;BME280_humidity;BME280_pressure;Samples;Min_cycle;Max_cycle;Signal;HPM_P1;HPM_P2
2023/03/06 00:01:47;;;;;;;;;56.67;42.00;;;;;6.26;70.20;100737.84;5118502;27;45595;-60
2023/03/06 00:04:14;;;;;;;;;59.00;42.33;;;;;6.23;71.18;100734.34;5118239;27;45457;-61
2023/03/06 00:06:39;;;;;;;;;57.67;44.33;;;;;6.27;70.97;100734.34;5117567;27;46438;-61
2023/03/06 00:09:04;;;;;;;;;61.67;42.67;;;;;6.28;70.46;100737.84;5117907;27;45394;-61
2023/03/06 00:11:30;;;;;;;;;48.00;41.33;;;;;6.25;71.11;100728.25;5118192;27;45304;-60
2023/03/06 00:13:55;;;;;;;;;67.33;49.33;;;;;6.20;71.10;100722.19;5118254;27;45368;-61
2023/03/06 00:16:20;;;;;;;;;62.33;46.33;;;;;6.14;71.90;100709.13;5117660;27;45293;-60
2023/03/06 00:18:46;;;;;;;;;57.33;43.67;;;;;6.17;71.78;100705.63;5118128;27;45310;-61
2023/03/06 00:21:12;;;;;;;;;61.00;42.33;;;;;6.23;70.99;100716.06;5117721;27;45436;-61
2023/03/06 00:23:38;;;;;;;;;62.33;45.00;;;;;6.19;71.60;100725.69;5117832;27;45283;-61
2023/03/06 00:26:06;;;;;;;;;62.67;46.00;;;;;6.10;71.88;100696.97;5117814;27;47050;-61
2023/03/06 00:28:33;;;;;;;;;47.67;39.67;;;;;6.15;70.95;100692.56;5117449;27;45511;-61
2023/03/06 00:30:59;;;;;;;;;57.00;43.33;;;;;6.22;71.05;100707.34;5117998;27;45292;-61
2023/03/06 00:33:24;;;;;;;;;56.33;44.00;;;;;6.19;71.03;100704.75;5117636;27;45359;-61
2023/03/06 00:35:50;;;;;;;;;62.00;43.00;;;;;6.18;71.81;100710.84;5117476;27;45475;-61
2023/03/06 00:38:15;;;;;;;;;61.00;45.33;;;;;6.00;71.76;100670.00;5117942;27;45391;-61
2023/03/06 00:40:40;;;;;;;;;52.00;42.00;;;;;6.17;72.15;100695.19;5117695;27;46042;-61
2023/03/06 00:43:06;;;;;;;;;62.00;44.67;;;;;6.21;72.21;100689.91;5118106;27;45315;-61
2023/03/06 00:45:31;;;;;;;;;58.67;45.33;;;;;6.20;71.34;100693.44;5117182;27;46003;-61
2023/03/06 00:47:56;;;;;;;;;61.67;45.67;;;;;6.12;71.67;100689.97;5117362;27;45630;-61
2023/03/06 00:50:22;;;;;;;;;57.67;45.33;;;;;6.18;72.02;100694.31;5117680;27;45381;-61
2023/03/06 00:52:47;;;;;;;;;57.67;45.33;;;;;6.13;72.12;100672.53;5117716;27;45427;-60
2023/03/06 00:55:13;;;;;;;;;64.33;47.00;;;;;6.18;71.92;100682.09;5117383;27;46900;-61
2023/03/06 00:57:38;;;;;;;;;61.67;46.67;;;;;6.21;71.74;100682.06;5117168;27;45329;-61
2023/03/06 01:00:05;;;;;;;;;53.67;42.00;;;;;6.20;71.97;100675.13;5120061;27;45414;-61
2023/03/06 01:02:31;;;;;;;;;56.33;43.33;;;;;6.20;71.83;100677.75;5121107;27;45561;-61
2023/03/06 01:04:56;;;;;;;;;60.33;45.00;;;;;6.26;72.14;100685.56;5120529;27;46370;-60
2023/03/06 01:07:22;;;;;;;;;58.67;43.33;;;;;6.21;72.32;100676.84;5120637;27;45277;-61
2023/03/06 01:09:47;;;;;;;;;63.00;42.67;;;;;6.24;72.01;100684.66;5119970;27;45304;-61
2023/03/06 01:12:12;;;;;;;;;58.00;42.67;;;;;6.27;72.22;100695.13;5121068;27;45320;-61
2023/03/06 01:14:38;;;;;;;;;57.67;43.67;;;;;6.23;71.96;100682.06;5120794;27;45500;-61
2023/03/06 01:17:03;;;;;;;;;58.00;46.33;;;;;6.28;72.00;100688.16;5120591;27;45479;-61
2023/03/06 01:19:29;;;;;;;;;57.00;42.00;;;;;6.23;71.96;100679.44;5120934;27;45214;-61
2023/03/06 01:21:54;;;;;;;;;60.33;41.00;;;;;6.02;71.50;100649.09;5120492;27;45480;-61
2023/03/06 01:24:19;;;;;;;;;54.67;43.67;;;;;6.21;72.13;100681.22;5120207;27;46513;-61
2023/03/06 01:26:45;;;;;;;;;62.67;45.33;;;;;6.08;72.00;100669.97;5120674;27;45313;-61
2023/03/06 01:29:10;;;;;;;;;55.33;43.67;;;;;6.13;72.58;100685.63;5120691;27;45255;-61
2023/03/06 01:31:36;;;;;;;;;59.67;45.67;;;;;6.19;72.18;100685.59;5120711;27;45680;-60
2023/03/06 01:34:01;;;;;;;;;54.33;41.33;;;;;6.15;72.63;100670.81;5120356;27;46120;-61
2023/03/06 01:36:27;;;;;;;;;58.00;44.33;;;;;6.20;72.36;100674.25;5120273;27;45548;-61
2023/03/06 01:38:52;;;;;;;;;62.67;45.00;;;;;6.16;72.98;100662.06;5120400;27;45357;-61
2023/03/06 01:41:20;;;;;;;;;56.33;45.33;;;;;6.00;72.67;100622.97;5120600;27;45472;-61
2023/03/06 01:43:46;;;;;;;;;59.33;44.33;;;;;6.19;72.40;100659.47;5120134;27;47252;-61
2023/03/06 01:46:33;;;;;;;;;56.00;43.67;;;;;6.19;73.10;100668.16;5119808;27;45441;-61
2023/03/06 01:49:06;;;;;;;;;54.00;42.00;;;;;6.20;73.36;100667.28;5110056;27;45591;-61
2023/03/06 01:51:38;;;;;;;;;62.33;43.33;;;;;6.12;73.71;100658.63;5120209;27;45838;-61
2023/03/06 01:54:10;;;;;;;;;70.00;49.00;;;;;6.17;73.35;100662.09;5119813;27;47045;-61
2023/03/06 01:56:38;;;;;;;;;59.67;41.00;;;;;5.95;73.32;100621.22;5119919;27;45388;-61
2023/03/06 01:59:04;;;;;;;;;57.00;44.33;;;;;6.20;72.24;100662.06;5119827;27;45293;-61
2023/03/06 02:01:31;;;;;;;;;57.67;44.00;;;;;6.01;72.46;100629.06;5120428;27;45231;-61
2023/03/06 02:03:58;;;;;;;;;62.00;47.33;;;;;6.22;72.44;100660.28;5119889;27;46473;-61
2023/03/06 02:06:23;;;;;;;;;65.00;49.67;;;;;6.19;72.62;100654.22;5119429;27;45390;-61
2023/03/06 02:08:51;;;;;;;;;57.00;44.67;;;;;6.15;72.36;100650.75;5119964;27;45563;-61
2023/03/06 02:11:20;;;;;;;;;55.33;44.00;;;;;6.07;72.41;100632.50;5118820;27;45253;-61
2023/03/06 02:13:48;;;;;;;;;58.00;43.00;;;;;6.24;72.68;100650.69;5119767;27;46266;-61
2023/03/06 02:16:15;;;;;;;;;60.00;46.33;;;;;6.26;72.14;100648.94;5119570;27;45445;-61
2023/03/06 02:18:42;;;;;;;;;55.67;44.33;;;;;6.23;72.24;100640.25;5119883;27;45442;-61
2023/03/06 02:21:11;;;;;;;;;63.00;46.00;;;;;6.25;72.23;100641.97;5119504;27;45464;-61
2023/03/06 02:23:51;;;;;;;;;57.67;44.67;;;;;6.22;72.24;100635.91;5119403;27;45477;-61
2023/03/06 02:26:17;;;;;;;;;60.00;46.00;;;;;6.20;72.32;100633.31;5119314;27;45500;-61
2023/03/06 02:28:42;;;;;;;;;59.33;47.00;;;;;6.20;72.14;100633.31;5119760;27;45392;-61
2023/03/06 02:31:19;;;;;;;;;55.67;40.67;;;;;6.18;71.77;100624.59;5119773;27;45585;-61
2023/03/06 02:33:45;;;;;;;;;57.33;42.67;;;;;6.19;71.83;100622.84;5119199;27;46498;-61
2023/03/06 02:36:13;;;;;;;;;56.33;42.67;;;;;6.17;72.22;100625.50;5119130;27;45168;-61
2023/03/06 02:38:46;;;;;;;;;54.33;39.00;;;;;6.15;72.08;100615.91;5119840;27;45202;-61
2023/03/06 02:41:12;;;;;;;;;61.00;44.33;;;;;6.15;71.59;100621.13;5119583;27;45313;-61
2023/03/06 02:43:39;;;;;;;;;57.67;38.33;;;;;6.08;71.54;100602.91;5119170;27;46231;-61
2023/03/06 02:46:05;;;;;;;;;58.33;42.33;;;;;6.09;71.27;100611.59;5119189;27;45434;-61
2023/03/06 02:48:31;;;;;;;;;59.33;42.00;;;;;6.01;71.57;100597.69;5119255;27;45389;-61
2023/03/06 02:50:56;;;;;;;;;57.00;41.33;;;;;6.12;71.19;100616.78;5119307;27;45439;-60
2023/03/06 02:53:21;;;;;;;;;57.00;43.00;;;;;6.13;71.42;100608.09;5118929;27;46598;-61
2023/03/06 02:55:48;;;;;;;;;56.67;42.00;;;;;6.01;70.98;100595.06;5119153;27;45396;-61
2023/03/06 02:58:14;;;;;;;;;55.67;45.00;;;;;5.69;70.76;100544.75;5117730;27;45442;-61
2023/03/06 03:00:40;;;;;;;;;57.33;41.33;;;;;5.97;70.50;100590.72;5119248;27;45471;-61
2023/03/06 03:03:05;;;;;;;;;53.00;44.33;;;;;6.01;70.14;100595.06;5119088;27;45683;-61
2023/03/06 03:05:31;;;;;;;;;52.00;40.33;;;;;5.93;70.79;100592.50;5118477;27;45391;-61
2023/03/06 03:07:56;;;;;;;;;55.67;41.67;;;;;5.86;70.49;100581.19;5118614;27;45365;-62
2023/03/06 03:10:22;;;;;;;;;43.67;35.33;;;;;5.87;70.75;100587.31;5118929;27;45212;-62
2023/03/06 03:12:48;;;;;;;;;56.33;42.67;;;;;5.79;70.89;100576.03;5118758;27;46793;-61
2023/03/06 03:15:13;;;;;;;;;62.00;45.33;;;;;5.84;70.98;100582.97;5119081;27;45326;-62
2023/03/06 03:17:40;;;;;;;;;58.00;41.67;;;;;5.86;71.10;100588.19;5118785;27;45375;-62
2023/03/06 03:20:09;;;;;;;;;61.33;42.33;;;;;5.75;70.96;100568.22;5119171;27;45358;-62
2023/03/06 03:22:34;;;;;;;;;56.00;44.67;;;;;5.87;71.01;100582.09;5117932;27;47432;-62
2023/03/06 03:24:59;;;;;;;;;51.00;39.33;;;;;5.88;71.12;100592.53;5118407;27;45381;-61
2023/03/06 03:27:25;;;;;;;;;58.67;44.00;;;;;5.80;71.34;100590.84;5118830;27;45298;-62
2023/03/06 03:29:50;;;;;;;;;52.00;41.67;;;;;5.57;71.15;100550.88;5118917;27;45288;-62
2023/03/06 03:32:16;;;;;;;;;49.67;36.67;;;;;5.83;71.19;100593.44;5118404;27;46550;-62
2023/03/06 03:34:41;;;;;;;;;55.00;43.33;;;;;5.78;71.25;100587.34;5118564;27;45406;-61
2023/03/06 03:37:06;;;;;;;;;58.67;42.33;;;;;5.69;71.98;100570.88;5118539;27;45455;-62
2023/03/06 03:39:32;;;;;;;;;56.33;40.33;;;;;5.77;72.10;100583.88;5118744;27;45441;-61
2023/03/06 03:41:57;;;;;;;;;52.00;42.00;;;;;5.68;71.89;100576.09;5118432;27;45787;-62
2023/03/06 03:44:23;;;;;;;;;58.00;45.00;;;;;5.69;72.10;100583.03;5118398;27;45414;-62
2023/03/06 03:46:48;;;;;;;;;59.00;43.33;;;;;5.62;72.38;100565.66;5118250;27;45372;-62
2023/03/06 03:49:14;;;;;;;;;53.67;41.00;;;;;5.68;72.21;100581.31;5118714;27;45552;-62
2023/03/06 03:51:39;;;;;;;;;61.67;45.00;;;;;5.67;72.57;100584.81;5118052;27;47379;-62
2023/03/06 03:54:05;;;;;;;;;56.67;42.00;;;;;5.42;72.92;100537.94;5118012;27;45466;-61
2023/03/06 03:56:32;;;;;;;;;51.33;38.67;;;;;5.57;72.25;100550.88;5118517;27;45459;-62
2023/03/06 03:58:57;;;;;;;;;52.33;40.33;;;;;5.63;72.91;100562.19;5118397;27;45534;-62
2023/03/06 04:01:23;;;;;;;;;58.33;43.67;;;;;5.69;73.07;100575.19;5117971;27;46604;-62
2023/03/06 04:03:48;;;;;;;;;53.00;40.33;;;;;5.61;73.16;100554.34;5117987;27;45748;-62
2023/03/06 04:06:14;;;;;;;;;65.00;45.00;;;;;5.48;72.90;100522.22;5118127;27;45351;-62
2023/03/06 04:08:39;;;;;;;;;47.33;40.33;;;;;5.72;72.93;100562.13;5118107;27;45528;-60
2023/03/06 04:11:05;;;;;;;;;56.00;40.33;;;;;5.71;72.45;100566.50;5117940;27;46451;-59
2023/03/06 04:13:30;;;;;;;;;57.67;42.33;;;;;5.70;72.52;100569.13;5118076;27;45257;-59
2023/03/06 04:15:56;;;;;;;;;54.67;42.67;;;;;5.61;72.71;100562.19;5118078;27;45624;-59
2023/03/06 04:18:22;;;;;;;;;52.67;41.00;;;;;5.65;73.15;100561.31;5118396;27;45207;-60
2023/03/06 04:20:48;;;;;;;;;55.67;41.67;;;;;5.64;72.86;100563.94;5117946;27;46621;-60
2023/03/06 04:23:15;;;;;;;;;59.00;44.00;;;;;5.61;73.15;100569.19;5117594;27;45429;-59
2023/03/06 04:25:40;;;;;;;;;57.33;43.33;;;;;5.59;73.40;100561.31;5117842;27;45350;-59
2023/03/06 04:28:06;;;;;;;;;57.00;42.33;;;;;5.61;73.23;100562.19;5118101;27;45414;-60
2023/03/06 04:30:32;;;;;;;;;53.33;39.00;;;;;5.58;73.56;100551.78;5117781;27;45338;-60
2023/03/06 04:32:58;;;;;;;;;54.67;42.67;;;;;5.51;72.80;100542.22;5117455;27;45401;-60
2023/03/06 04:35:23;;;;;;;;;61.33;45.33;;;;;5.57;73.42;100542.19;5120731;27;45433;-60
2023/03/06 04:37:48;;;;;;;;;57.33;41.00;;;;;5.56;73.33;100540.44;5121530;27;45444;-60
2023/03/06 04:40:23;;;;;;;;;52.67;38.00;;;;;5.50;73.37;100528.28;5119409;27;45753;-60
2023/03/06 04:42:48;;;;;;;;;56.33;41.67;;;;;5.54;73.73;100539.59;5103978;27;45311;-60
2023/03/06 04:45:14;;;;;;;;;62.67;43.67;;;;;5.55;73.26;100536.97;5108368;27;45484;-60
2023/03/06 04:47:40;;;;;;;;;63.00;41.33;;;;;5.47;73.31;100532.66;5100892;27;45171;-60
2023/03/06 04:50:07;;;;;;;;;52.00;40.33;;;;;5.54;73.38;100543.06;5100250;27;46561;-60
2023/03/06 04:52:33;;;;;;;;;55.33;42.33;;;;;5.35;73.66;100504.88;5100358;27;45472;-60
2023/03/06 04:54:58;;;;;;;;;57.33;42.00;;;;;5.54;73.66;100537.00;5100422;27;45293;-60
2023/03/06 04:57:23;;;;;;;;;62.67;42.00;;;;;5.55;73.55;100534.38;5099068;27;45469;-60
2023/03/06 04:59:49;;;;;;;;;62.00;42.33;;;;;5.58;73.51;100543.94;5100401;27;46296;-60
2023/03/06 05:02:18;;;;;;;;;55.33;41.33;;;;;5.52;73.25;100529.16;5100169;27;45433;-60
2023/03/06 05:04:43;;;;;;;;;53.67;41.00;;;;;5.54;73.42;100534.38;5100267;27;45471;-60
2023/03/06 05:07:09;;;;;;;;;59.00;44.33;;;;;5.48;73.05;100521.38;5100422;27;45335;-60
2023/03/06 05:09:35;;;;;;;;;53.00;39.00;;;;;5.49;73.53;100512.63;5099884;27;45633;-60
2023/03/06 05:12:00;;;;;;;;;59.33;45.00;;;;;5.52;73.05;100521.34;5100024;27;45522;-61
2023/03/06 05:14:29;;;;;;;;;52.67;40.67;;;;;5.50;73.49;100530.91;5100373;27;45786;-60
2023/03/06 05:16:54;;;;;;;;;61.00;41.33;;;;;5.46;73.52;100521.38;5100256;27;45828;-60
2023/03/06 05:19:20;;;;;;;;;53.33;42.33;;;;;5.38;73.73;100503.13;5099983;27;45584;-60
2023/03/06 05:21:45;;;;;;;;;51.67;41.67;;;;;5.47;72.82;100515.25;5099715;27;45460;-60
2023/03/06 05:24:10;;;;;;;;;57.00;42.00;;;;;5.41;73.51;100507.47;5099969;27;45437;-60
2023/03/06 05:26:36;;;;;;;;;47.67;38.00;;;;;5.37;72.88;100503.13;5100141;27;45403;-60
2023/03/06 05:29:01;;;;;;;;;51.33;38.00;;;;;5.44;72.95;100524.84;5099929;27;46298;-60
2023/03/06 05:31:26;;;;;;;;;53.33;35.33;;;;;5.39;72.83;100504.00;5099911;27;45487;-60
2023/03/06 05:33:52;;;;;;;;;51.33;39.00;;;;;5.52;72.73;100518.72;5099843;27;45322;-60
2023/03/06 05:36:17;;;;;;;;;66.33;45.33;;;;;5.46;72.52;100512.66;5100187;27;45307;-60
2023/03/06 05:38:42;;;;;;;;;58.00;41.67;;;;;5.49;72.11;100520.47;5099424;27;46692;-60
2023/03/06 05:41:11;;;;;;;;;47.33;38.00;;;;;5.48;72.39;100509.16;5099704;27;45360;-60
2023/03/06 05:43:36;;;;;;;;;57.33;41.33;;;;;5.47;72.37;100503.94;5099833;27;45352;-60
2023/03/06 05:46:03;;;;;;;;;53.33;37.00;;;;;5.53;71.66;100515.25;5099472;27;45299;-60
2023/03/06 05:48:29;;;;;;;;;53.33;39.00;;;;;5.51;71.69;100516.13;5099522;27;45348;-60
2023/03/06 05:50:59;;;;;;;;;56.00;42.00;;;;;5.51;71.71;100516.13;5099513;27;45395;-60
2023/03/06 05:53:25;;;;;;;;;53.67;41.33;;;;;5.49;71.56;100510.91;5099535;27;45409;-60
2023/03/06 05:55:58;;;;;;;;;60.00;42.33;;;;;5.39;71.05;100504.84;5099692;27;45331;-60
2023/03/06 05:58:23;;;;;;;;;63.33;45.67;;;;;5.39;71.50;100502.25;5099162;27;45493;-60
2023/03/06 06:00:49;;;;;;;;;54.00;41.33;;;;;5.44;71.40;100509.19;5099175;27;45368;-61
2023/03/06 06:03:14;;;;;;;;;53.67;39.00;;;;;5.30;70.85;100485.75;5099390;27;45326;-60
2023/03/06 06:05:39;;;;;;;;;55.00;39.00;;;;;5.29;71.43;100504.94;5099414;27;45478;-61
2023/03/06 06:08:05;;;;;;;;;49.00;38.33;;;;;5.33;71.88;100512.72;5098950;27;45503;-61
2023/03/06 06:10:30;;;;;;;;;60.33;43.00;;;;;5.26;71.15;100497.09;5099160;27;45286;-61
2023/03/06 06:12:55;;;;;;;;;52.67;40.67;;;;;5.32;71.85;100504.91;5099372;27;45446;-61
2023/03/06 06:15:21;;;;;;;;;44.33;35.67;;;;;5.37;71.20;100500.50;5099521;27;45300;-61
2023/03/06 06:17:46;;;;;;;;;45.00;35.33;;;;;5.29;71.18;100504.94;5097859;27;46254;-61
2023/03/06 06:20:12;;;;;;;;;54.67;42.00;;;;;5.40;71.29;100518.78;5098922;27;45223;-61
2023/03/06 06:22:37;;;;;;;;;57.00;42.00;;;;;5.30;70.85;100504.03;5099105;27;45498;-61
2023/03/06 06:25:04;;;;;;;;;43.67;38.00;;;;;5.38;71.14;100510.09;5098792;27;45418;-61
2023/03/06 06:27:29;;;;;;;;;58.33;39.33;;;;;5.35;70.84;100502.28;5098931;27;45325;-61
2023/03/06 06:29:54;;;;;;;;;59.67;39.67;;;;;5.36;71.22;100511.84;5098863;27;45425;-61
2023/03/06 06:32:20;;;;;;;;;55.67;38.33;;;;;5.41;70.91;100517.91;5099151;27;45473;-61
2023/03/06 06:34:45;;;;;;;;;53.67;39.00;;;;;5.40;71.02;100511.81;5099179;27;45473;-61
2023/03/06 06:37:10;;;;;;;;;54.00;38.33;;;;;5.35;70.71;100513.56;5098822;27;46488;-61
2023/03/06 06:39:35;;;;;;;;;53.33;42.33;;;;;5.27;71.45;100510.16;5098450;27;45498;-61
2023/03/06 06:42:01;;;;;;;;;57.33;43.00;;;;;5.32;71.07;100512.75;5098903;27;45341;-61
2023/03/06 06:44:26;;;;;;;;;58.33;47.33;;;;;5.32;71.23;100512.75;5098741;27;45404;-61
2023/03/06 06:46:52;;;;;;;;;53.67;42.00;;;;;5.29;70.93;100510.16;5098564;27;45438;-61
2023/03/06 06:49:17;;;;;;;;;51.33;41.00;;;;;4.96;71.33;100459.84;5098805;27;45332;-61
2023/03/06 06:51:42;;;;;;;;;62.33;41.33;;;;;5.27;71.26;100512.78;5098591;27;45377;-61
2023/03/06 06:54:09;;;;;;;;;62.67;43.67;;;;;5.25;71.69;100511.03;5098793;27;45470;-61
2023/03/06 06:56:35;;;;;;;;;60.00;44.67;;;;;5.29;70.88;100518.84;5097775;27;45749;-61
2023/03/06 06:59:00;;;;;;;;;53.67;37.00;;;;;5.22;71.55;100512.75;5097993;27;45303;-61
2023/03/06 07:01:27;;;;;;;;;58.33;45.33;;;;;5.27;71.89;100518.00;5098643;27;45223;-61
2023/03/06 07:03:52;;;;;;;;;60.33;42.67;;;;;5.32;71.64;100518.81;5098521;27;45367;-61
2023/03/06 07:06:17;;;;;;;;;58.33;38.67;;;;;5.37;71.51;100524.00;5097775;27;46197;-61
2023/03/06 07:08:43;;;;;;;;;47.00;39.00;;;;;5.38;71.41;100521.38;5098175;27;45250;-61
2023/03/06 07:11:16;;;;;;;;;63.00;47.00;;;;;5.38;70.98;100521.38;5098267;27;45404;-61
2023/03/06 07:13:42;;;;;;;;;60.00;41.67;;;;;5.28;70.80;100493.59;5098289;27;45764;-61
2023/03/06 07:16:08;;;;;;;;;50.33;41.67;;;;;5.35;70.40;100491.84;5098081;27;46099;-61
2023/03/06 07:18:33;;;;;;;;;55.33;41.33;;;;;5.32;70.67;100505.75;5098034;27;45371;-61
2023/03/06 07:20:59;;;;;;;;;59.00;44.33;;;;;5.07;70.52;100455.44;5098300;27;45751;-61
2023/03/06 07:23:25;;;;;;;;;60.33;45.33;;;;;5.35;70.51;100504.88;5098561;27;45368;-61
2023/03/06 07:25:52;;;;;;;;;45.00;35.67;;;;;5.27;71.19;100512.78;5097999;27;45993;-61
2023/03/06 07:28:17;;;;;;;;;59.00;44.33;;;;;5.33;71.37;100504.00;5098021;27;45336;-61
2023/03/06 07:30:43;;;;;;;;;57.67;46.67;;;;;5.42;71.16;100509.19;5098211;27;45487;-61
2023/03/06 07:33:08;;;;;;;;;58.33;43.67;;;;;5.51;70.54;100509.13;5098495;27;45392;-61
2023/03/06 07:35:34;;;;;;;;;55.33;40.67;;;;;5.56;70.93;100515.22;5097888;27;45377;-61
2023/03/06 07:37:59;;;;;;;;;63.67;46.00;;;;;5.59;70.43;100514.31;5098069;27;45330;-61
2023/03/06 07:40:26;;;;;;;;;69.67;48.67;;;;;5.59;71.02;100516.91;5098363;27;45438;-61
2023/03/06 07:42:56;;;;;;;;;57.33;41.00;;;;;5.65;70.56;100514.28;5098296;27;45683;-61
2023/03/06 07:45:22;;;;;;;;;64.67;45.00;;;;;5.67;70.28;100512.53;5097746;27;46252;-61
2023/03/06 07:47:51;;;;;;;;;56.33;44.67;;;;;5.35;70.41;100452.69;5097857;27;45281;-61
2023/03/06 07:50:17;;;;;;;;;56.67;42.33;;;;;5.74;70.06;100515.97;5098000;27;45230;-61
2023/03/06 07:52:43;;;;;;;;;49.67;40.33;;;;;5.74;69.87;100515.97;5098198;27;45229;-61
2023/03/06 07:55:09;;;;;;;;;56.00;41.00;;;;;5.72;69.98;100520.31;5097576;27;45362;-61
2023/03/06 07:57:35;;;;;;;;;45.00;30.00;;;;;5.74;70.13;100523.81;5097709;27;45251;-61
2023/03/06 08:00:02;;;;;;;;;50.33;40.33;;;;;5.77;70.11;100523.78;5097901;27;45389;-61
2023/03/06 08:02:28;;;;;;;;;56.33;43.00;;;;;5.84;69.65;100533.31;5097821;27;45328;-61
2023/03/06 08:04:54;;;;;;;;;48.33;39.33;;;;;5.90;69.47;100529.81;5097564;27;45422;-61
2023/03/06 08:07:20;;;;;;;;;50.67;39.67;;;;;5.86;69.02;100525.47;5097450;27;45431;-61
2023/03/06 08:09:45;;;;;;;;;51.33;40.00;;;;;5.90;69.50;100529.81;5099383;27;45418;-61
2023/03/06 08:12:11;;;;;;;;;50.33;41.33;;;;;5.91;69.00;100532.41;5101602;27;45307;-61
2023/03/06 08:14:36;;;;;;;;;58.67;40.00;;;;;5.97;69.10;100544.59;5101082;27;46274;-61
2023/03/06 08:17:01;;;;;;;;;55.00;39.67;;;;;6.02;68.91;100555.00;5101621;27;45457;-61
2023/03/06 08:19:27;;;;;;;;;55.00;43.00;;;;;6.03;68.82;100535.84;5101468;27;45206;-61
2023/03/06 08:21:52;;;;;;;;;51.33;35.00;;;;;5.98;68.66;100525.41;5101360;27;45591;-61
2023/03/06 08:24:18;;;;;;;;;61.00;42.33;;;;;6.06;68.40;100543.66;5100815;27;46436;-61
2023/03/06 08:26:44;;;;;;;;;60.00;44.00;;;;;6.14;68.48;100540.97;5101056;27;45317;-61
2023/03/06 08:29:10;;;;;;;;;54.33;39.00;;;;;6.26;68.33;100554.81;5101408;27;45351;-61
2023/03/06 08:31:38;;;;;;;;;60.67;47.33;;;;;6.35;67.84;100556.50;5101234;27;45323;-61
2023/03/06 08:34:10;;;;;;;;;54.00;40.00;;;;;6.39;67.28;100549.47;5100961;27;45735;-61
2023/03/06 08:36:36;;;;;;;;;61.67;47.67;;;;;6.52;67.48;100553.72;5100888;27;45288;-61
2023/03/06 08:39:02;;;;;;;;;54.33;34.00;;;;;6.60;66.63;100549.28;5100835;27;45402;-61
2023/03/06 08:41:28;;;;;;;;;57.00;41.00;;;;;6.63;66.14;100538.78;5101239;27;45600;-61
2023/03/06 08:43:53;;;;;;;;;54.67;40.67;;;;;6.74;65.90;100541.31;5100831;27;46128;-61
2023/03/06 08:46:21;;;;;;;;;52.67;36.33;;;;;6.83;65.52;100542.09;5100602;27;45343;-61
2023/03/06 08:48:47;;;;;;;;;59.33;39.33;;;;;6.92;64.72;100542.84;5100998;27;45391;-61
2023/03/06 08:51:13;;;;;;;;;53.00;37.67;;;;;7.03;64.54;100550.59;5100956;27;45509;-61
2023/03/06 08:53:38;;;;;;;;;49.00;39.67;;;;;7.09;64.32;100533.94;5100528;27;45468;-61
2023/03/06 08:56:04;;;;;;;;;54.33;40.33;;;;;7.24;64.23;100536.38;5100649;27;45300;-61
2023/03/06 08:58:29;;;;;;;;;54.00;40.33;;;;;7.43;63.17;100546.63;5100705;27;45236;-61
2023/03/06 09:00:55;;;;;;;;;41.00;33.00;;;;;7.54;63.03;100547.34;5100805;27;45529;-61
2023/03/06 09:03:22;;;;;;;;;51.67;36.67;;;;;7.70;62.05;100545.38;5100538;27;46238;-61
2023/03/06 09:05:48;;;;;;;;;43.67;34.00;;;;;7.83;62.06;100546.06;5100231;27;45334;-61
2023/03/06 09:08:14;;;;;;;;;45.67;36.33;;;;;8.01;61.62;100550.16;5100409;27;45430;-61
2023/03/06 09:10:39;;;;;;;;;55.33;37.33;;;;;8.10;61.51;100547.38;5100499;27;45307;-61
2023/03/06 09:13:04;;;;;;;;;48.33;37.33;;;;;8.24;61.04;100549.78;5100404;27;45425;-61
2023/03/06 09:15:30;;;;;;;;;49.67;37.00;;;;;8.34;60.54;100550.50;5100308;27;45376;-61
2023/03/06 09:17:55;;;;;;;;;46.00;36.33;;;;;8.37;60.51;100539.97;5100402;27;45354;-61
2023/03/06 09:20:21;;;;;;;;;43.00;30.67;;;;;8.40;59.61;100539.06;5099922;27;45426;-61
2023/03/06 09:22:47;;;;;;;;;49.00;37.67;;;;;8.56;59.60;100548.41;5100098;27;45350;-61
2023/03/06 09:25:16;;;;;;;;;41.33;35.67;;;;;8.68;59.57;100540.34;5100012;27;45312;-61
2023/03/06 09:27:41;;;;;;;;;47.00;37.00;;;;;8.87;59.75;100543.47;5100360;27;45419;-61
2023/03/06 09:30:08;;;;;;;;;49.33;37.33;;;;;8.95;56.73;100537.22;5100243;27;45368;-61
2023/03/06 09:32:33;;;;;;;;;36.33;31.00;;;;;9.16;59.04;100536.75;5100082;27;46422;-61
2023/03/06 09:34:59;;;;;;;;;56.33;45.00;;;;;9.45;56.27;100535.28;5099739;27;45431;-61
2023/03/06 09:37:25;;;;;;;;;43.00;35.33;;;;;9.63;56.41;100531.41;5100158;27;45407;-61
2023/03/06 09:39:50;;;;;;;;;47.67;37.00;;;;;9.87;56.57;100526.47;5100107;27;45334;-61
2023/03/06 09:42:19;;;;;;;;;41.67;33.67;;;;;10.15;54.30;100525.81;5099745;27;46344;-61
2023/03/06 09:44:57;;;;;;;;;53.67;38.67;;;;;10.40;54.17;100526.97;5099865;27;45190;-61
2023/03/06 09:47:22;;;;;;;;;46.67;34.00;;;;;10.94;53.23;100516.78;5100018;27;45613;-61
2023/03/06 09:50:10;;;;;;;;;42.00;34.00;;;;;11.65;51.05;100523.47;5099941;27;45662;-61
2023/03/06 09:52:37;;;;;;;;;40.33;34.33;;;;;12.09;51.84;100520.34;5099426;27;45477;-61
2023/03/06 09:55:16;;;;;;;;;47.33;35.00;;;;;12.37;53.84;100514.13;5099620;27;45195;-61
2023/03/06 09:58:08;;;;;;;;;49.33;35.67;;;;;12.50;51.33;100527.78;5099713;27;45278;-61
2023/03/06 10:00:40;;;;;;;;;39.33;34.33;;;;;12.48;51.17;100519.06;5098559;27;45430;-61
2023/03/06 10:03:28;;;;;;;;;46.67;35.67;;;;;12.36;49.51;100518.56;5099447;27;45383;-61
2023/03/06 10:06:05;;;;;;;;;43.00;32.33;;;;;12.20;47.66;100525.28;5099468;27;45248;-61
2023/03/06 10:08:48;;;;;;;;;42.00;34.33;;;;;12.32;49.09;100529.28;5099298;27;45606;-61
2023/03/06 10:11:21;;;;;;;;;37.33;31.67;;;;;12.95;47.37;100526.22;5099508;27;45480;-61
2023/03/06 10:13:50;;;;;;;;;38.00;31.00;;;;;13.46;48.47;100512.00;5099492;27;45323;-61
2023/03/06 10:16:22;;;;;;;;;34.67;30.67;;;;;14.52;46.75;100511.25;5099483;27;45372;-61
2023/03/06 10:18:47;;;;;;;;;42.00;34.67;;;;;15.75;43.55;100516.31;5099275;27;45453;-61
2023/03/06 10:21:30;;;;;;;;;45.67;32.00;;;;;17.00;41.92;100512.72;5099545;27;45297;-61
2023/03/06 10:24:44;;;;;;;;;33.67;29.00;;;;;18.34;41.75;100504.41;5099258;27;46524;-61
2023/03/06 10:27:17;;;;;;;;;37.33;32.67;;;;;19.04;39.46;100493.09;5056009;28;45453;-61
2023/03/06 10:29:57;;;;;;;;;41.33;33.67;;;;;19.55;33.48;100491.69;5056218;28;45450;-61
2023/03/06 10:32:41;;;;;;;;;29.67;24.67;;;;;19.97;34.77;100482.69;5055190;28;45557;-61
2023/03/06 10:35:16;;;;;;;;;37.33;30.33;;;;;20.02;34.99;100454.81;5056113;28;47419;-62
2023/03/06 10:37:41;;;;;;;;;34.00;27.00;;;;;20.29;32.85;100478.84;5055992;28;45516;-62
2023/03/06 10:40:16;;;;;;;;;31.67;25.00;;;;;19.98;35.33;100479.06;5055978;28;45381;-62
2023/03/06 10:42:41;;;;;;;;;36.00;32.00;;;;;19.45;34.38;100472.72;5056525;28;45377;-62
2023/03/06 10:45:08;;;;;;;;;37.33;29.33;;;;;18.87;33.61;100475.44;5055300;28;46444;-62
2023/03/06 10:47:35;;;;;;;;;32.00;27.00;;;;;18.32;36.16;100458.31;5055625;28;45389;-62
2023/03/06 10:50:04;;;;;;;;;28.00;23.67;;;;;17.89;35.65;100477.66;5055978;28;45547;-62
2023/03/06 10:52:34;;;;;;;;;35.67;29.33;;;;;17.35;37.27;100467.38;5056050;28;45519;-62
2023/03/06 10:55:25;;;;;;;;;30.33;24.67;;;;;16.90;36.42;100473.41;5055429;28;45419;-62
2023/03/06 10:57:51;;;;;;;;;36.67;30.00;;;;;16.42;36.67;100425.38;5078973;27;45288;-62
2023/03/06 11:00:32;;;;;;;;;35.67;32.00;;;;;16.39;36.25;100463.59;5098748;27;45277;-61
2023/03/06 11:03:15;;;;;;;;;34.00;31.00;;;;;16.17;36.56;100467.34;5098880;27;45522;-62
2023/03/06 11:06:12;;;;;;;;;42.67;31.67;;;;;15.84;37.86;100459.28;5098317;27;47243;-61
2023/03/06 11:08:38;;;;;;;;;37.67;31.33;;;;;15.39;36.33;100456.09;5097982;27;45319;-62
2023/03/06 11:11:23;;;;;;;;;36.67;31.00;;;;;15.03;37.69;100456.03;5098308;27;45527;-62
2023/03/06 11:13:57;;;;;;;;;31.00;29.33;;;;;14.49;37.57;100456.63;5098442;27;45290;-61
2023/03/06 11:16:29;;;;;;;;;29.33;24.33;;;;;14.05;38.55;100452.31;5098105;27;45341;-61
2023/03/06 11:18:59;;;;;;;;;32.33;29.33;;;;;13.60;38.38;100455.06;5098436;27;45365;-61